createdAt,value
2022-11-26T00:02:27.210Z,4.69
2022-11-26T00:04:57.163Z,4.75
2022-11-26T00:07:27.569Z,4.69
2022-11-26T00:09:56.926Z,4.63
2022-11-26T00:12:29.385Z,4.38
2022-11-26T00:14:58.754Z,4.38
2022-11-26T00:17:26.386Z,4.38
2022-11-26T00:19:56.174Z,4.38
2022-11-26T00:22:31.778Z,4.50
2022-11-26T00:24:59.574Z,4.44
2022-11-26T00:27:28.432Z,4.31
2022-11-26T00:29:56.464Z,4.38
2022-11-26T00:32:26.608Z,4.38
2022-11-26T00:34:54.386Z,4.38
2022-11-26T00:37:29.735Z,4.44
2022-11-26T00:39:58.315Z,4.44
2022-11-26T00:42:25.608Z,4.44
2022-11-26T00:44:52.795Z,4.38
2022-11-26T00:47:20.000Z,4.50
2022-11-26T00:49:47.159Z,4.44
2022-11-26T00:52:35.554Z,4.50
2022-11-26T00:55:16.372Z,4.31
2022-11-26T00:57:43.954Z,4.13
2022-11-26T01:00:20.952Z,4.00
2022-11-26T01:02:48.794Z,4.19
2022-11-26T01:05:16.918Z,4.38
2022-11-26T01:07:45.617Z,4.44
2022-11-26T01:10:24.422Z,4.19
2022-11-26T01:12:53.434Z,4.19
2022-11-26T01:15:24.159Z,4.31
2022-11-26T01:17:53.076Z,4.44
2022-11-26T01:20:30.840Z,4.50
2022-11-26T01:22:59.364Z,4.44
2022-11-26T01:25:28.085Z,4.38
2022-11-26T01:27:55.535Z,4.31
2022-11-26T01:30:27.186Z,4.50
2022-11-26T01:32:54.504Z,4.56
2022-11-26T01:35:22.675Z,4.69
2022-11-26T01:37:50.567Z,4.63
2022-11-26T01:40:26.996Z,4.81
2022-11-26T01:43:00.420Z,4.69
2022-11-26T01:45:28.226Z,4.75
2022-11-26T01:47:55.390Z,4.50
2022-11-26T01:50:28.899Z,4.56
2022-11-26T01:53:19.646Z,4.50
2022-11-26T01:55:57.864Z,4.56
2022-11-26T01:58:39.653Z,4.63
2022-11-26T02:01:08.372Z,4.63
2022-11-26T02:03:43.908Z,4.69
2022-11-26T02:06:21.254Z,4.69
2022-11-26T02:08:48.632Z,4.69
2022-11-26T02:11:24.254Z,4.69
2022-11-26T02:13:56.734Z,4.69
2022-11-26T02:16:48.292Z,4.63
2022-11-26T02:19:49.610Z,4.75
2022-11-26T02:23:00.112Z,4.75
2022-11-26T02:25:48.396Z,4.69
2022-11-26T02:28:55.363Z,4.75
2022-11-26T02:31:36.264Z,4.69
2022-11-26T02:34:15.405Z,4.69
2022-11-26T02:36:55.925Z,4.75
2022-11-26T02:39:26.920Z,4.81
2022-11-26T02:41:58.804Z,4.69
2022-11-26T02:44:43.360Z,4.56
2022-11-26T02:47:15.556Z,4.44
2022-11-26T02:49:45.200Z,4.63
2022-11-26T02:52:15.419Z,4.56
2022-11-26T02:54:44.751Z,4.56
2022-11-26T02:57:17.516Z,4.63
2022-11-26T02:59:45.582Z,4.75
2022-11-26T03:02:32.486Z,4.81
2022-11-26T03:05:02.701Z,4.63
2022-11-26T03:07:32.663Z,4.69
2022-11-26T03:10:02.376Z,4.75
2022-11-26T03:12:30.297Z,4.81
2022-11-26T03:14:57.619Z,4.81
2022-11-26T03:17:24.844Z,4.88
2022-11-26T03:19:52.364Z,4.81
2022-11-26T03:22:19.577Z,4.75
2022-11-26T03:24:46.798Z,4.88
2022-11-26T03:27:13.978Z,4.81
2022-11-26T03:29:41.142Z,4.88
2022-11-26T03:32:08.527Z,4.81
2022-11-26T03:34:35.792Z,4.88
2022-11-26T03:37:03.149Z,4.81
2022-11-26T03:39:30.275Z,4.88
2022-11-26T03:41:57.462Z,5.00
2022-11-26T03:44:24.586Z,4.88
2022-11-26T03:46:51.733Z,4.75
2022-11-26T03:49:19.034Z,4.88
2022-11-26T03:51:46.139Z,4.88
2022-11-26T03:54:13.381Z,4.75
2022-11-26T03:56:40.551Z,4.69
2022-11-26T03:59:07.773Z,4.69
2022-11-26T04:01:35.007Z,4.69
2022-11-26T04:04:02.278Z,4.75
2022-11-26T04:06:29.453Z,4.81
2022-11-26T04:08:56.637Z,4.75
2022-11-26T04:11:23.787Z,4.69
2022-11-26T04:13:50.913Z,4.88
2022-11-26T04:16:18.139Z,4.88
2022-11-26T04:18:45.386Z,4.94
2022-11-26T04:21:12.575Z,4.94
2022-11-26T04:23:39.851Z,5.00
2022-11-26T04:26:07.049Z,5.00
2022-11-26T04:28:34.180Z,4.94
2022-11-26T04:31:01.642Z,4.94
2022-11-26T04:33:28.798Z,4.81
2022-11-26T04:35:56.249Z,4.94
2022-11-26T04:38:25.945Z,4.75
2022-11-26T04:40:53.431Z,4.75
2022-11-26T04:43:20.830Z,4.88
2022-11-26T04:45:48.069Z,4.81
2022-11-26T04:48:15.567Z,4.81
2022-11-26T04:50:42.675Z,4.81
2022-11-26T04:53:09.921Z,4.81
2022-11-26T04:55:37.548Z,4.88
2022-11-26T04:58:04.786Z,4.94
2022-11-26T05:00:31.955Z,4.94
2022-11-26T05:02:59.183Z,4.75
2022-11-26T05:05:26.402Z,4.75
2022-11-26T05:07:53.695Z,4.81
2022-11-26T05:10:21.010Z,4.88
2022-11-26T05:12:48.176Z,4.81
2022-11-26T05:15:15.415Z,4.81
2022-11-26T05:17:42.674Z,4.81
2022-11-26T05:20:10.909Z,4.81
2022-11-26T05:22:38.065Z,4.88
2022-11-26T05:25:05.500Z,4.94
2022-11-26T05:27:32.727Z,4.81
2022-11-26T05:30:00.039Z,4.88
2022-11-26T05:32:27.709Z,5.00
2022-11-26T05:34:59.865Z,5.00
2022-11-26T05:37:27.460Z,4.94
2022-11-26T05:39:54.638Z,5.06
2022-11-26T05:42:22.028Z,5.06
2022-11-26T05:44:49.126Z,5.00
2022-11-26T05:47:16.294Z,4.94
2022-11-26T05:49:43.467Z,5.00
2022-11-26T05:52:10.827Z,4.94
2022-11-26T05:54:38.256Z,4.88
2022-11-26T05:57:05.569Z,5.00
2022-11-26T05:59:32.675Z,5.00
2022-11-26T06:01:59.833Z,5.00
2022-11-26T06:04:27.008Z,4.94
2022-11-26T06:06:54.193Z,4.81
2022-11-26T06:09:22.052Z,4.94
2022-11-26T06:11:52.516Z,5.00
2022-11-26T06:14:22.779Z,4.94
2022-11-26T06:16:50.125Z,5.06
2022-11-26T06:19:17.368Z,4.81
2022-11-26T06:21:44.633Z,4.94
2022-11-26T06:24:12.172Z,5.06
2022-11-26T06:26:39.345Z,4.88
2022-11-26T06:29:06.599Z,5.00
2022-11-26T06:31:34.120Z,5.06
2022-11-26T06:34:01.435Z,5.06
2022-11-26T06:36:28.691Z,5.06
2022-11-26T06:38:55.812Z,5.00
2022-11-26T06:41:23.166Z,4.94
2022-11-26T06:46:34.992Z,5.06
2022-11-26T06:51:38.575Z,5.19
2022-11-26T06:54:05.843Z,5.25
2022-11-26T06:56:38.185Z,5.06
2022-11-26T06:59:06.053Z,5.00
2022-11-26T07:01:33.400Z,4.94
2022-11-26T07:31:30.217Z,5.44
2022-11-26T07:33:58.548Z,5.44
2022-11-26T07:36:28.960Z,5.50
2022-11-26T07:39:02.631Z,5.56
2022-11-26T07:41:31.624Z,5.63
2022-11-26T07:43:58.773Z,5.75
2022-11-26T07:46:27.156Z,5.63
2022-11-26T07:48:56.771Z,5.75
2022-11-26T07:51:31.872Z,5.50
2022-11-26T07:54:03.368Z,5.63
2022-11-26T07:56:30.771Z,5.56
2022-11-26T08:01:30.442Z,5.44
2022-11-26T08:04:01.648Z,5.38
2022-11-26T08:06:32.931Z,5.38
2022-11-26T08:09:09.192Z,5.44
2022-11-26T10:26:48.193Z,6.44
2022-11-26T10:46:34.572Z,6.63
2022-11-26T10:49:26.697Z,6.63
2022-11-26T10:52:04.100Z,6.50
2022-11-26T10:54:44.532Z,6.56
2022-11-26T11:00:39.378Z,6.81
2022-11-26T11:06:38.852Z,6.69
2022-11-26T11:09:26.372Z,6.69
2022-11-26T11:48:26.293Z,6.69
2022-11-26T11:54:03.067Z,6.75
2022-11-26T11:56:40.753Z,6.81
2022-11-26T12:02:39.447Z,6.75
2022-11-26T12:23:27.025Z,6.75
2022-11-26T12:26:30.188Z,6.63
2022-11-26T12:29:17.697Z,6.63
2022-11-26T12:32:05.159Z,6.63
2022-11-26T12:34:49.487Z,6.75
2022-11-26T12:44:31.195Z,6.81
2022-11-26T12:53:40.856Z,6.94
2022-11-26T12:59:00.358Z,6.88
2022-11-26T15:32:06.887Z,6.94
2022-11-26T15:56:45.857Z,6.81
2022-11-26T15:59:22.432Z,6.75
2022-11-26T16:01:50.693Z,6.88
2022-11-26T16:04:35.658Z,6.81
2022-11-26T16:07:16.597Z,6.88
2022-11-26T16:09:45.435Z,6.94
2022-11-26T16:12:34.343Z,6.88
2022-11-26T16:17:43.057Z,6.81
2022-11-26T16:20:27.400Z,6.88
2022-11-26T16:22:59.222Z,6.81
2022-11-26T16:25:34.462Z,6.88
2022-11-26T16:28:21.905Z,6.88
2022-11-26T16:30:49.156Z,6.81
2022-11-26T16:33:22.162Z,6.75
2022-11-26T16:36:02.274Z,6.81
2022-11-26T16:38:43.689Z,6.88
2022-11-26T16:41:30.321Z,6.88
2022-11-26T16:43:58.726Z,6.75
2022-11-26T16:46:28.104Z,6.88
2022-11-26T16:49:03.595Z,6.88
2022-11-26T16:51:31.674Z,6.81
2022-11-26T16:53:58.879Z,6.88
2022-11-26T16:56:39.503Z,6.75
2022-11-26T16:59:19.615Z,6.75
2022-11-26T17:01:47.150Z,6.81
2022-11-26T17:04:14.775Z,6.94
2022-11-26T17:06:43.292Z,7.00
2022-11-26T17:09:18.830Z,7.06
2022-11-26T17:11:46.727Z,7.00
2022-11-26T17:14:14.817Z,6.81
2022-11-26T17:16:42.173Z,7.06
2022-11-26T17:19:15.187Z,7.06
2022-11-26T17:21:42.704Z,7.00
2022-11-26T17:24:09.945Z,7.00
2022-11-26T17:26:37.380Z,7.06
2022-11-26T17:29:04.612Z,6.94
2022-11-26T17:31:31.905Z,6.81
2022-11-26T17:33:59.278Z,6.88
2022-11-26T17:36:26.583Z,7.00
2022-11-26T17:38:53.800Z,6.94
2022-11-26T17:41:21.158Z,7.06
2022-11-26T17:43:48.361Z,7.13
2022-11-26T17:46:20.029Z,6.94
2022-11-26T17:48:49.164Z,6.94
2022-11-26T17:51:16.790Z,7.06
2022-11-26T17:53:45.328Z,7.06
2022-11-26T17:56:27.128Z,7.06
2022-11-26T17:58:54.756Z,7.06
2022-11-26T18:01:22.338Z,7.06
2022-11-26T18:03:49.542Z,7.06
2022-11-26T18:06:39.289Z,7.13
2022-11-26T18:09:06.421Z,7.00
2022-11-26T18:11:53.536Z,7.06
2022-11-26T18:14:21.597Z,7.06
2022-11-26T18:16:49.959Z,7.00
2022-11-26T18:19:20.308Z,7.00
2022-11-26T18:21:50.739Z,7.13
2022-11-26T18:24:18.292Z,7.13
2022-11-26T18:26:45.501Z,7.13
2022-11-26T18:29:13.381Z,7.13
2022-11-26T18:34:32.952Z,7.13
2022-11-26T18:37:00.391Z,7.13
2022-11-26T18:39:28.661Z,7.13
2022-11-26T18:42:15.421Z,7.06
2022-11-26T18:44:44.051Z,7.13
2022-11-26T18:47:13.020Z,7.13
2022-11-26T18:49:44.525Z,7.13
2022-11-26T18:52:13.404Z,7.13
2022-11-26T18:54:41.370Z,7.19
2022-11-26T18:57:08.993Z,7.13
2022-11-26T18:59:37.043Z,7.00
2022-11-26T19:02:06.810Z,7.06
2022-11-26T19:04:38.444Z,7.13
2022-11-26T19:07:09.470Z,7.06
2022-11-26T19:09:40.515Z,7.00
2022-11-26T19:12:08.874Z,7.06
2022-11-26T19:14:36.184Z,7.06
2022-11-26T19:17:04.676Z,6.88
2022-11-26T19:19:33.239Z,7.00
2022-11-26T19:22:02.081Z,6.94
2022-11-26T19:24:31.006Z,7.00
2022-11-26T19:26:58.459Z,6.94
2022-11-26T19:29:25.906Z,6.94
2022-11-26T19:31:54.752Z,6.88
2022-11-26T19:34:25.385Z,6.81
2022-11-26T19:40:06.015Z,6.88
2022-11-26T19:45:12.741Z,7.06
2022-11-26T19:47:39.960Z,6.94
2022-11-26T19:50:09.433Z,6.94
2022-11-26T19:52:36.551Z,6.94
2022-11-26T19:55:04.492Z,7.00
2022-11-26T19:57:31.637Z,6.94
2022-11-26T19:59:58.848Z,7.06
2022-11-26T20:02:26.392Z,7.06
2022-11-26T20:04:53.667Z,7.06
2022-11-26T20:07:20.892Z,7.06
2022-11-26T20:09:52.432Z,7.00
2022-11-26T20:12:20.379Z,7.13
2022-11-26T20:14:49.574Z,7.00
2022-11-26T20:17:18.988Z,7.00
2022-11-26T20:19:46.708Z,6.94
2022-11-26T20:22:14.333Z,6.88
2022-11-26T20:24:42.777Z,6.88
2022-11-26T20:27:11.324Z,6.88
2022-11-26T20:29:39.731Z,6.94
2022-11-26T20:32:09.525Z,6.88
2022-11-26T20:34:53.616Z,6.88
2022-11-26T20:37:24.959Z,6.94
2022-11-26T20:39:53.272Z,6.88
2022-11-26T20:42:20.904Z,6.88
2022-11-26T20:44:49.745Z,6.88
2022-11-26T20:47:19.197Z,6.88
2022-11-26T20:49:47.735Z,6.81
2022-11-26T20:52:16.562Z,6.81
2022-11-26T20:54:50.813Z,6.88
2022-11-26T20:57:34.054Z,6.94
2022-11-26T21:00:14.456Z,6.88
2022-11-26T21:16:43.654Z,6.88
2022-11-26T21:28:26.117Z,6.88
2022-11-26T21:34:06.899Z,6.81
2022-11-26T21:47:42.258Z,6.81
2022-11-26T21:50:30.990Z,6.69
2022-11-26T21:58:34.514Z,6.75
2022-11-26T22:01:29.373Z,6.94
2022-11-26T22:04:00.089Z,6.81
2022-11-26T22:06:32.337Z,6.88
2022-11-26T22:09:02.510Z,6.94
2022-11-26T22:11:55.903Z,6.88
2022-11-26T22:14:37.974Z,6.88
2022-11-26T22:17:07.853Z,6.88
2022-11-26T22:19:47.480Z,6.81
2022-11-26T22:22:17.022Z,6.69
2022-11-26T22:24:50.665Z,6.63
2022-11-26T22:27:25.978Z,6.56
2022-11-26T22:29:56.640Z,6.56
2022-11-26T22:32:39.670Z,6.56
2022-11-26T22:35:16.347Z,6.56
2022-11-26T22:37:54.060Z,6.56
2022-11-26T22:40:28.455Z,6.63
2022-11-26T22:43:00.738Z,6.50
2022-11-26T22:45:32.955Z,6.50
2022-11-26T22:48:07.276Z,6.50
2022-11-26T22:50:43.718Z,6.50
2022-11-26T22:53:13.036Z,6.44
2022-11-26T22:55:53.398Z,6.56
2022-11-26T22:58:24.942Z,6.56
2022-11-26T23:01:09.771Z,6.50
2022-11-26T23:03:41.686Z,6.56
2022-11-26T23:06:13.809Z,6.50
2022-11-26T23:08:45.063Z,6.50
2022-11-26T23:11:19.769Z,6.50
2022-11-26T23:13:51.887Z,6.50
2022-11-26T23:16:25.686Z,6.50
2022-11-26T23:18:56.235Z,6.50
2022-11-26T23:21:33.688Z,6.50
2022-11-26T23:24:07.643Z,6.44
2022-11-26T23:26:38.733Z,6.44
2022-11-26T23:29:07.915Z,6.44
2022-11-26T23:31:44.512Z,6.44
2022-11-26T23:34:12.677Z,6.38
2022-11-26T23:36:39.952Z,6.38
2022-11-26T23:39:11.179Z,6.31
2022-11-26T23:41:38.396Z,6.19
2022-11-26T23:44:05.827Z,6.19
2022-11-26T23:46:35.445Z,6.19
2022-11-26T23:49:02.851Z,6.13
2022-11-26T23:51:32.356Z,6.06
2022-11-26T23:53:59.827Z,6.00
2022-11-26T23:56:31.576Z,6.00
2022-11-26T23:59:02.176Z,6.00
